Time;durP1;ratioP1;P1;durP2;ratioP2;P2;SDS_P1;SDS_P2;PMS_P1;PMS_P2;Temp;Humidity;BMP_temperature;BMP_pressure;BME280_temperature;BME280_humidity;BME280_pressure;Samples;Min_cycle;Max_cycle;Signal;HPM_P1;HPM_P2
2021/12/02 00:02:18;;;;;;;7.60;2.35;;;21.00;52.80;;;;;;4992496;28;20061;-76
2021/12/02 00:04:44;;;;;;;8.85;3.08;;;20.90;49.50;;;;;;4958844;28;20057;-76
2021/12/02 00:07:10;;;;;;;7.28;2.67;;;20.90;56.10;;;;;;4959195;28;20117;-76
2021/12/02 00:09:37;;;;;;;7.75;2.97;;;20.90;55.70;;;;;;4966932;28;20039;-75
2021/12/02 00:12:04;;;;;;;11.77;2.80;;;20.90;54.70;;;;;;4954091;29;20523;-75
2021/12/02 00:14:38;;;;;;;8.23;2.53;;;21.00;52.90;;;;;;4920717;29;20035;-76
2021/12/02 00:17:08;;;;;;;8.38;2.38;;;21.00;52.50;;;;;;4936353;29;20050;-76
2021/12/02 00:22:23;;;;;;;10.85;2.28;;;21.00;52.10;;;;;;4920923;29;20035;-76
2021/12/02 00:24:54;;;;;;;14.02;2.70;;;21.10;52.50;;;;;;4920298;29;20035;-76
2021/12/02 00:27:23;;;;;;;9.18;2.50;;;21.10;52.60;;;;;;4954517;28;20031;-76
2021/12/02 00:29:51;;;;;;;9.82;2.50;;;21.10;53.10;;;;;;4955323;28;20066;-75
2021/12/02 00:32:17;;;;;;;8.98;2.38;;;21.10;53.10;;;;;;4940135;28;20035;-76
2021/12/02 00:34:45;;;;;;;10.50;2.40;;;21.10;53.10;;;;;;4955386;28;20063;-76
2021/12/02 00:37:11;;;;;;;13.75;2.53;;;21.10;53.40;;;;;;4950121;28;20035;-76
2021/12/02 00:39:38;;;;;;;6.60;2.10;;;21.10;53.50;;;;;;4958874;28;20033;-75
2021/12/02 00:42:04;;;;;;;15.73;2.90;;;21.20;53.70;;;;;;4955764;28;20491;-75
2021/12/02 00:44:32;;;;;;;12.52;2.72;;;21.10;53.90;;;;;;4955168;28;20130;-75
2021/12/02 00:46:58;;;;;;;11.07;2.33;;;21.10;54.10;;;;;;4954952;28;20588;-75
2021/12/02 00:49:23;;;;;;;18.13;3.10;;;21.10;54.40;;;;;;4972903;28;20085;-75
2021/12/02 00:51:55;;;;;;;7.57;2.38;;;21.10;54.50;;;;;;4971454;28;20383;-75
2021/12/02 00:54:24;;;;;;;10.98;2.40;;;21.10;54.60;;;;;;4955275;28;20027;-75
2021/12/02 00:56:50;;;;;;;14.60;2.58;;;21.10;54.70;;;;;;4972329;28;20509;-75
2021/12/02 00:59:17;;;;;;;7.50;2.20;;;21.10;54.80;;;;;;4972703;28;20082;-75
2021/12/02 01:01:43;;;;;;;17.33;2.45;;;21.10;54.80;;;;;;4953240;28;20057;-75
2021/12/02 01:04:11;;;;;;;6.88;2.60;;;21.10;54.80;;;;;;4955245;28;20125;-75
2021/12/02 01:06:38;;;;;;;8.75;2.50;;;21.10;54.90;;;;;;4953895;28;20034;-75
2021/12/02 01:09:05;;;;;;;9.05;2.28;;;21.10;55.00;;;;;;4972362;28;20061;-75
2021/12/02 01:11:33;;;;;;;6.28;2.22;;;21.10;55.20;;;;;;4954917;28;20040;-75
2021/12/02 01:14:00;;;;;;;8.43;2.13;;;21.10;55.10;;;;;;4955129;28;20027;-75
2021/12/02 01:16:27;;;;;;;5.40;2.08;;;21.10;55.20;;;;;;4939121;28;20105;-76
2021/12/02 01:18:53;;;;;;;8.93;2.05;;;21.10;55.20;;;;;;4938683;28;20578;-77
2021/12/02 01:21:23;;;;;;;6.35;2.08;;;21.00;55.20;;;;;;4939364;28;20496;-76
2021/12/02 01:23:52;;;;;;;4.78;1.88;;;21.00;55.30;;;;;;4954818;28;20035;-76
2021/12/02 01:26:19;;;;;;;7.22;2.60;;;21.00;55.30;;;;;;4939029;28;20039;-76
2021/12/02 01:28:45;;;;;;;3.58;1.90;;;21.00;55.50;;;;;;4971911;28;20491;-76
2021/12/02 01:31:13;;;;;;;9.80;2.15;;;21.00;55.50;;;;;;4957273;28;20026;-76
2021/12/02 01:33:40;;;;;;;6.93;2.10;;;21.00;55.60;;;;;;4954960;29;20030;-76
2021/12/02 01:36:06;;;;;;;4.30;1.80;;;21.00;56.10;;;;;;4956344;29;20054;-76
2021/12/02 01:38:33;;;;;;;9.05;2.20;;;21.00;55.70;;;;;;4939546;29;20032;-76
2021/12/02 01:41:01;;;;;;;6.35;2.00;;;21.00;55.70;;;;;;4923704;29;20035;-76
2021/12/02 01:43:45;;;;;;;6.78;2.55;;;21.00;55.70;;;;;;4955409;29;20042;-76
2021/12/02 01:46:11;;;;;;;10.00;2.00;;;21.10;55.80;;;;;;4956363;28;20130;-75
2021/12/02 01:48:40;;;;;;;6.47;2.00;;;21.00;55.70;;;;;;4958498;28;20023;-76
2021/12/02 01:51:09;;;;;;;5.60;1.70;;;21.00;55.70;;;;;;4975795;28;20038;-76
2021/12/02 01:53:39;;;;;;;5.28;1.92;;;21.00;55.80;;;;;;4974563;28;20395;-76
2021/12/02 01:56:13;;;;;;;7.07;2.00;;;21.10;55.80;;;;;;4975292;28;20023;-76
2021/12/02 01:58:43;;;;;;;7.55;2.00;;;21.10;55.80;;;;;;4958494;28;20031;-76
2021/12/02 02:01:27;;;;;;;6.65;1.88;;;21.10;55.80;;;;;;4973494;28;20086;-76
2021/12/02 02:03:55;;;;;;;5.85;1.80;;;21.00;55.90;;;;;;4942619;28;20034;-76
2021/12/02 02:06:50;;;;;;;4.43;1.77;;;21.10;56.00;;;;;;4957973;28;20026;-76
2021/12/02 02:09:15;;;;;;;4.57;1.92;;;21.00;55.80;;;;;;4958082;28;20503;-76
2021/12/02 02:11:41;;;;;;;4.85;1.80;;;21.00;55.90;;;;;;4958350;28;20027;-76
2021/12/02 02:14:09;;;;;;;6.05;2.30;;;21.00;56.00;;;;;;4941461;28;20121;-77
2021/12/02 02:16:36;;;;;;;10.10;2.00;;;21.00;56.00;;;;;;4957924;28;20023;-76
2021/12/02 02:19:04;;;;;;;6.30;2.03;;;21.00;56.10;;;;;;4942298;28;20042;-76
2021/12/02 02:21:34;;;;;;;9.00;2.15;;;21.00;56.10;;;;;;4975443;28;20031;-76
2021/12/02 02:24:01;;;;;;;7.57;2.15;;;21.00;56.10;;;;;;4973839;28;20030;-76
2021/12/02 02:26:31;;;;;;;7.13;1.98;;;21.00;56.20;;;;;;4941865;28;20395;-76
2021/12/02 02:28:57;;;;;;;13.18;2.20;;;21.00;56.20;;;;;;4954379;28;20031;-77
2021/12/02 02:31:25;;;;;;;7.50;2.22;;;21.00;56.20;;;;;;4942155;29;20039;-77
2021/12/02 02:33:53;;;;;;;7.15;1.70;;;21.00;56.30;;;;;;4923068;29;20436;-77
2021/12/02 02:36:21;;;;;;;5.70;1.52;;;21.00;56.20;;;;;;4955309;29;20511;-77
2021/12/02 02:38:56;;;;;;;7.20;2.10;;;21.00;56.30;;;;;;4955311;28;20081;-77
2021/12/02 02:41:26;;;;;;;4.07;1.45;;;21.00;56.20;;;;;;4922317;28;20031;-77
2021/12/02 02:43:55;;;;;;;;;;;21.00;56.20;;;;;;4955202;29;20034;-77
2021/12/02 02:46:26;;;;;;;4.30;2.00;;;21.00;56.30;;;;;;4954988;28;19910;-76
2021/12/02 02:48:53;;;;;;;8.48;2.13;;;21.00;56.10;;;;;;4934087;29;20054;-76
2021/12/02 02:51:19;;;;;;;6.22;2.00;;;21.00;56.20;;;;;;4955034;29;20066;-76
2021/12/02 02:53:52;;;;;;;6.18;1.75;;;21.00;56.10;;;;;;4937981;29;20024;-76
2021/12/02 02:56:21;;;;;;;5.15;1.60;;;20.90;56.10;;;;;;4940739;28;20031;-76
2021/12/02 03:01:40;;;;;;;5.45;1.70;;;21.00;56.10;;;;;;4941174;28;20039;-76
2021/12/02 03:12:08;;;;;;;10.30;1.70;;;21.00;56.40;;;;;;4953304;29;20110;-77
2021/12/02 03:14:52;;;;;;;6.07;1.52;;;21.00;56.40;;;;;;4954701;29;20051;-76
2021/12/02 03:17:18;;;;;;;4.80;1.70;;;21.00;56.00;;;;;;4953507;29;20027;-76
2021/12/02 03:19:46;;;;;;;4.93;1.50;;;21.10;56.20;;;;;;4954706;28;20102;-76
2021/12/02 03:22:16;;;;;;;19.58;2.22;;;21.10;56.10;;;;;;4937378;29;20039;-76
2021/12/02 03:24:41;;;;;;;;;;;21.00;56.20;;;;;;4953607;28;20035;-76
2021/12/02 03:27:07;;;;;;;5.53;1.65;;;21.00;56.20;;;;;;4962748;28;19932;-75
2021/12/02 03:29:33;;;;;;;9.52;2.08;;;21.00;56.40;;;;;;4937584;29;20514;-76
2021/12/02 03:32:00;;;;;;;6.20;1.70;;;21.00;56.40;;;;;;4954562;28;20083;-77
2021/12/02 03:34:26;;;;;;;6.57;1.98;;;21.00;56.30;;;;;;4952877;29;20486;-76
2021/12/02 03:36:52;;;;;;;8.15;2.05;;;21.00;56.40;;;;;;4937204;29;20023;-75
2021/12/02 03:39:18;;;;;;;5.97;1.70;;;21.00;56.60;;;;;;4953344;28;20063;-76
2021/12/02 03:41:45;;;;;;;10.48;1.80;;;21.00;56.30;;;;;;4938355;28;20036;-76
2021/12/02 03:44:11;;;;;;;13.23;2.20;;;20.90;56.70;;;;;;4955996;28;20406;-76
2021/12/02 03:46:40;;;;;;;8.82;1.90;;;20.90;56.70;;;;;;4940259;28;20034;-76
2021/12/02 03:49:07;;;;;;;11.15;2.20;;;20.90;56.60;;;;;;4940280;28;20066;-76
2021/12/02 03:51:33;;;;;;;11.73;2.00;;;21.00;56.50;;;;;;4956265;28;20045;-76
2021/12/02 03:53:59;;;;;;;11.30;1.90;;;20.90;56.30;;;;;;4971719;28;20019;-76
2021/12/02 03:56:26;;;;;;;7.80;1.90;;;20.90;56.20;;;;;;4955632;28;20031;-76
2021/12/02 03:58:52;;;;;;;5.03;1.88;;;20.90;56.20;;;;;;4929663;29;20082;-76
2021/12/02 04:01:19;;;;;;;9.38;1.83;;;20.90;56.10;;;;;;4937114;29;20066;-76
2021/12/02 04:03:46;;;;;;;10.65;1.88;;;20.90;56.10;;;;;;4936785;28;20055;-76
2021/12/02 04:06:12;;;;;;;10.38;2.10;;;20.90;56.40;;;;;;4938844;28;20073;-76
2021/12/02 04:11:34;;;;;;;4.80;1.80;;;20.90;56.20;;;;;;4972696;28;20648;-77
2021/12/02 04:16:27;;;;;;;5.82;2.00;;;20.90;55.40;;;;;;4953486;29;20035;-76
2021/12/02 04:18:53;;;;;;;7.68;1.63;;;20.90;55.50;;;;;;4920820;29;20046;-77
2021/12/02 04:21:19;;;;;;;6.00;1.40;;;21.00;55.50;;;;;;4921324;29;20031;-76
2021/12/02 04:23:44;;;;;;;4.50;1.20;;;20.90;55.00;;;;;;4936730;29;20027;-77
2021/12/02 04:26:10;;;;;;;4.10;1.63;;;21.00;55.30;;;;;;4953701;29;20035;-77
2021/12/02 04:28:36;;;;;;;5.25;1.63;;;20.90;55.00;;;;;;4926380;29;20383;-75
2021/12/02 04:31:02;;;;;;;4.78;1.52;;;20.90;55.00;;;;;;4937006;29;20027;-77
2021/12/02 04:33:31;;;;;;;7.53;1.85;;;20.90;55.00;;;;;;4941555;28;20065;-76
2021/12/02 04:35:59;;;;;;;7.47;1.75;;;20.90;55.30;;;;;;4955497;28;20114;-77
2021/12/02 04:38:25;;;;;;;4.50;1.60;;;20.90;55.80;;;;;;4955386;28;20416;-75
2021/12/02 04:40:51;;;;;;;6.65;1.60;;;21.00;55.80;;;;;;4973445;28;20019;-75
2021/12/02 04:43:17;;;;;;;4.63;1.80;;;21.00;55.50;;;;;;4952286;28;20151;-75
2021/12/02 04:45:42;;;;;;;9.45;1.80;;;21.00;55.60;;;;;;4954236;28;20019;-75
2021/12/02 04:48:08;;;;;;;6.72;1.83;;;21.00;55.80;;;;;;4952036;28;20082;-75
2021/12/02 04:50:34;;;;;;;4.55;1.50;;;21.00;55.60;;;;;;4936354;29;20067;-76
2021/12/02 04:53:00;;;;;;;6.97;1.65;;;21.00;55.90;;;;;;4952282;28;20484;-76
2021/12/02 04:55:26;;;;;;;6.80;1.50;;;21.00;55.70;;;;;;4935946;29;20031;-76
2021/12/02 04:57:52;;;;;;;10.27;1.70;;;21.00;55.50;;;;;;4952271;28;20035;-76
2021/12/02 05:00:18;;;;;;;6.20;1.67;;;21.00;55.30;;;;;;4954429;28;20053;-77
2021/12/02 05:02:45;;;;;;;5.18;1.50;;;20.90;55.20;;;;;;4952302;28;20050;-76
2021/12/02 05:05:11;;;;;;;3.90;1.80;;;21.00;54.80;;;;;;4936506;29;20039;-77
2021/12/02 05:07:37;;;;;;;4.93;1.40;;;20.90;54.70;;;;;;4956168;28;20046;-76
2021/12/02 05:10:04;;;;;;;4.80;1.45;;;21.00;55.00;;;;;;4939745;29;20446;-76
2021/12/02 05:12:30;;;;;;;4.28;1.52;;;20.90;54.90;;;;;;4955535;29;20042;-77
2021/12/02 05:14:59;;;;;;;5.20;1.83;;;21.00;54.80;;;;;;4955316;28;20027;-77
2021/12/02 05:17:25;;;;;;;5.15;1.55;;;20.90;54.60;;;;;;4939915;29;20027;-77
2021/12/02 05:19:51;;;;;;;6.07;1.95;;;21.00;54.50;;;;;;4939896;29;20038;-76
2021/12/02 05:22:17;;;;;;;7.05;1.58;;;21.00;54.40;;;;;;4924244;29;20045;-76
2021/12/02 05:24:42;;;;;;;3.03;1.40;;;21.00;54.20;;;;;;4956518;29;20114;-76
2021/12/02 05:27:09;;;;;;;3.60;1.70;;;21.00;54.40;;;;;;4939732;29;20523;-76
2021/12/02 05:29:34;;;;;;;5.72;1.50;;;21.00;54.50;;;;;;4923236;29;20082;-75
2021/12/02 05:32:01;;;;;;;4.63;1.50;;;21.00;54.30;;;;;;4957694;28;20035;-76
2021/12/02 05:34:27;;;;;;;4.68;1.95;;;21.00;54.40;;;;;;4939283;29;20062;-76
2021/12/02 05:36:53;;;;;;;5.80;2.10;;;21.00;54.40;;;;;;4955432;28;20082;-77
2021/12/02 05:39:19;;;;;;;4.72;1.60;;;21.00;54.60;;;;;;4955304;28;20110;-77
2021/12/02 05:41:45;;;;;;;4.05;1.60;;;21.00;54.50;;;;;;4939801;29;20042;-77
2021/12/02 05:44:12;;;;;;;4.28;1.60;;;21.00;54.50;;;;;;4955216;29;20035;-76
2021/12/02 05:46:40;;;;;;;2.30;1.30;;;21.00;54.40;;;;;;4940089;29;20062;-77
2021/12/02 05:49:05;;;;;;;5.07;1.60;;;21.00;54.50;;;;;;4939262;29;20027;-76
2021/12/02 05:51:31;;;;;;;4.53;1.83;;;21.00;54.50;;;;;;4939425;29;20023;-76
2021/12/02 05:53:57;;;;;;;4.88;1.33;;;21.00;55.00;;;;;;4939184;29;20400;-76
2021/12/02 05:56:22;;;;;;;4.15;1.65;;;21.00;54.40;;;;;;4939029;29;20488;-76
2021/12/02 05:58:48;;;;;;;7.95;1.88;;;21.00;55.00;;;;;;4939408;29;20039;-77
2021/12/02 06:01:14;;;;;;;5.22;1.63;;;21.00;54.30;;;;;;4938800;29;20551;-76
2021/12/02 06:03:40;;;;;;;4.40;1.58;;;21.00;54.50;;;;;;4936794;28;20491;-78
2021/12/02 06:06:06;;;;;;;4.18;1.40;;;21.00;54.30;;;;;;4963243;28;20031;-76
2021/12/02 06:08:32;;;;;;;2.65;1.50;;;21.00;54.30;;;;;;4923575;29;20086;-76
2021/12/02 06:10:58;;;;;;;4.15;1.70;;;21.00;54.40;;;;;;4955082;29;20543;-76
2021/12/02 06:13:26;;;;;;;4.68;1.42;;;21.00;54.30;;;;;;4939109;29;20057;-76
2021/12/02 06:15:52;;;;;;;4.43;1.75;;;21.00;54.30;;;;;;4922928;28;20063;-76
2021/12/02 06:18:18;;;;;;;3.90;1.77;;;21.00;54.10;;;;;;4950841;28;20058;-76
2021/12/02 06:20:47;;;;;;;3.17;1.55;;;21.00;53.90;;;;;;4940535;28;20035;-76
2021/12/02 06:23:13;;;;;;;4.45;1.60;;;21.00;54.00;;;;;;4954900;29;20073;-76
2021/12/02 06:28:05;;;;;;;4.38;1.75;;;21.00;54.20;;;;;;4964453;28;20031;-76
2021/12/02 06:30:32;;;;;;;5.50;1.60;;;21.00;54.30;;;;;;4974968;28;20027;-76
2021/12/02 06:32:57;;;;;;;8.02;2.20;;;21.00;54.40;;;;;;4941429;28;20495;-76
2021/12/02 06:35:23;;;;;;;4.38;1.60;;;20.90;54.40;;;;;;4957308;28;20054;-76
2021/12/02 06:37:49;;;;;;;5.30;1.80;;;20.90;54.10;;;;;;4957498;28;20031;-76
2021/12/02 06:40:16;;;;;;;5.72;2.20;;;21.00;54.40;;;;;;4974548;28;20030;-77
2021/12/02 06:42:42;;;;;;;4.32;1.98;;;21.00;54.30;;;;;;4940404;28;20125;-76
2021/12/02 06:45:10;;;;;;;4.03;1.83;;;20.90;54.30;;;;;;4957187;28;20031;-76
2021/12/02 06:47:40;;;;;;;3.15;1.58;;;21.00;54.60;;;;;;4973587;28;20584;-76
2021/12/02 06:50:09;;;;;;;5.95;2.08;;;20.90;54.60;;;;;;4940834;28;20067;-76
2021/12/02 06:52:36;;;;;;;6.93;2.03;;;21.00;55.00;;;;;;4941407;28;20118;-76
2021/12/02 06:55:03;;;;;;;3.75;1.63;;;20.90;54.60;;;;;;4973657;28;20038;-76
2021/12/02 06:57:30;;;;;;;4.68;2.13;;;21.00;54.90;;;;;;4955680;28;20053;-77
2021/12/02 06:59:56;;;;;;;6.10;1.83;;;20.90;54.70;;;;;;4941079;28;20479;-76
2021/12/02 07:02:21;;;;;;;4.30;1.70;;;20.90;54.60;;;;;;4941205;28;20043;-76
2021/12/02 07:04:51;;;;;;;2.72;1.40;;;21.00;54.70;;;;;;4956378;28;20031;-76
2021/12/02 07:07:17;;;;;;;5.47;2.10;;;20.90;54.60;;;;;;4941178;28;20031;-76
2021/12/02 07:09:43;;;;;;;4.55;1.70;;;20.90;54.50;;;;;;4940724;28;20033;-75
2021/12/02 07:12:09;;;;;;;4.43;1.80;;;21.00;54.80;;;;;;4936812;29;20039;-76
2021/12/02 07:14:35;;;;;;;4.07;2.00;;;21.00;55.10;;;;;;4953624;28;20027;-76
2021/12/02 07:17:01;;;;;;;3.83;1.65;;;21.00;54.50;;;;;;4969389;28;20031;-76
2021/12/02 07:19:26;;;;;;;4.22;1.83;;;21.00;54.60;;;;;;4954559;28;20030;-77
2021/12/02 07:21:52;;;;;;;5.13;1.90;;;21.00;54.40;;;;;;4953037;28;20035;-76
2021/12/02 07:24:18;;;;;;;5.28;1.77;;;21.00;54.60;;;;;;4969329;28;20023;-76
2021/12/02 07:26:46;;;;;;;5.88;2.00;;;21.00;54.40;;;;;;4954139;29;20048;-76
2021/12/02 07:29:17;;;;;;;4.38;1.83;;;21.00;54.30;;;;;;4955078;28;20046;-76
2021/12/02 07:31:43;;;;;;;4.45;1.75;;;21.00;54.30;;;;;;4954028;29;20035;-76
2021/12/02 07:34:10;;;;;;;4.22;1.77;;;21.00;54.30;;;;;;4954201;28;20495;-76
2021/12/02 07:36:36;;;;;;;3.50;1.77;;;21.00;54.30;;;;;;4952974;28;20032;-76
2021/12/02 07:39:06;;;;;;;5.15;1.70;;;21.00;54.30;;;;;;4953167;29;20166;-76
2021/12/02 07:41:32;;;;;;;4.35;1.80;;;21.00;54.50;;;;;;4937192;29;20066;-76
2021/12/02 07:43:58;;;;;;;7.60;1.80;;;21.00;54.60;;;;;;4941473;28;20026;-76
2021/12/02 07:46:24;;;;;;;5.50;1.80;;;21.00;54.70;;;;;;4956163;28;20038;-75
2021/12/02 07:48:50;;;;;;;5.35;2.08;;;20.90;54.70;;;;;;4973150;28;20037;-76
2021/12/02 07:51:16;;;;;;;4.47;1.95;;;21.00;54.60;;;;;;4940159;28;20030;-75
2021/12/02 07:53:49;;;;;;;4.70;1.83;;;20.90;54.80;;;;;;4956111;28;20030;-76
2021/12/02 07:56:22;;;;;;;4.95;1.67;;;20.90;54.40;;;;;;4939858;28;20102;-76
2021/12/02 07:58:49;;;;;;;4.45;1.90;;;20.90;54.50;;;;;;4973314;28;20027;-76
2021/12/02 08:01:15;;;;;;;4.30;1.80;;;20.90;54.50;;;;;;4970266;28;20195;-76
2021/12/02 08:03:44;;;;;;;3.90;1.58;;;21.00;54.50;;;;;;4956224;28;20062;-75
2021/12/02 08:06:16;;;;;;;7.05;1.88;;;20.90;54.50;;;;;;4969934;28;20031;-75
2021/12/02 08:08:45;;;;;;;4.45;2.10;;;21.00;54.30;;;;;;4954254;28;20101;-75
2021/12/02 08:11:12;;;;;;;3.92;1.98;;;21.00;54.40;;;;;;4972941;28;20471;-77
2021/12/02 08:13:38;;;;;;;3.95;1.88;;;20.90;54.40;;;;;;4955716;28;20037;-76
2021/12/02 08:16:06;;;;;;;5.60;1.80;;;21.00;54.40;;;;;;4955422;28;20038;-77
2021/12/02 08:18:33;;;;;;;4.47;1.77;;;21.00;54.40;;;;;;4936546;29;20031;-76
2021/12/02 08:20:59;;;;;;;3.35;1.73;;;20.90;54.60;;;;;;4953754;29;20110;-77
2021/12/02 08:23:26;;;;;;;4.50;1.83;;;21.00;54.30;;;;;;4953422;29;20035;-76
2021/12/02 08:25:53;;;;;;;4.20;1.80;;;21.00;54.50;;;;;;4952213;28;20028;-77
2021/12/02 08:28:21;;;;;;;4.95;1.90;;;20.90;54.30;;;;;;4949735;28;20618;-76
2021/12/02 08:30:49;;;;;;;4.05;1.88;;;21.00;54.30;;;;;;4939479;28;20114;-76
2021/12/02 08:33:14;;;;;;;5.03;2.00;;;21.00;54.30;;;;;;4955628;28;20023;-77
2021/12/02 08:35:41;;;;;;;3.67;2.05;;;21.00;54.10;;;;;;4955414;28;20038;-77
2021/12/02 08:38:11;;;;;;;5.13;1.92;;;21.00;54.00;;;;;;4937003;28;20644;-76
2021/12/02 08:40:39;;;;;;;4.32;1.80;;;21.00;54.00;;;;;;4953891;28;20042;-76
2021/12/02 08:43:07;;;;;;;7.78;2.22;;;21.00;53.90;;;;;;4964584;28;20062;-76
2021/12/02 08:45:35;;;;;;;5.80;2.35;;;21.00;54.00;;;;;;4974724;28;20031;-76
2021/12/02 08:48:02;;;;;;;5.03;2.00;;;21.00;54.00;;;;;;4976184;28;20027;-76
2021/12/02 08:50:29;;;;;;;4.72;2.15;;;21.00;53.90;;;;;;4943997;28;20027;-77
2021/12/02 08:52:55;;;;;;;4.72;2.15;;;21.10;54.10;;;;;;4943669;28;20041;-76
2021/12/02 08:55:23;;;;;;;6.60;1.90;;;21.00;54.10;;;;;;4975338;28;20114;-76
2021/12/02 08:57:51;;;;;;;2.47;1.70;;;21.10;54.10;;;;;;4975607;28;20034;-76
2021/12/02 09:00:19;;;;;;;3.38;2.00;;;21.10;54.10;;;;;;4943659;28;20042;-76
2021/12/02 09:02:46;;;;;;;6.05;2.00;;;21.00;53.90;;;;;;4959770;28;20033;-76
2021/12/02 09:05:12;;;;;;;5.53;2.10;;;21.00;54.00;;;;;;4973534;28;20039;-76
2021/12/02 09:07:38;;;;;;;4.45;1.80;;;21.00;54.10;;;;;;4976792;28;20042;-76
2021/12/02 09:10:06;;;;;;;4.43;2.13;;;21.00;53.90;;;;;;4943539;28;20037;-77
2021/12/02 09:12:32;;;;;;;4.25;2.00;;;21.10;54.00;;;;;;4959155;28;20097;-76
2021/12/02 09:14:58;;;;;;;4.65;2.10;;;21.10;54.00;;;;;;4976532;28;20022;-77
2021/12/02 09:17:24;;;;;;;5.20;2.17;;;21.00;53.80;;;;;;4976570;28;20130;-77
2021/12/02 09:19:52;;;;;;;5.47;2.35;;;21.00;53.80;;;;;;4976671;28;20130;-77
2021/12/02 09:22:18;;;;;;;5.78;2.00;;;21.10;53.80;;;;;;4964846;28;20031;-77
2021/12/02 09:24:44;;;;;;;4.10;1.95;;;21.10;53.70;;;;;;4939483;29;20412;-76
2021/12/02 09:27:10;;;;;;;6.07;2.10;;;21.10;53.70;;;;;;4939369;29;20368;-76
2021/12/02 09:29:36;;;;;;;5.03;2.38;;;21.10;53.70;;;;;;4955675;28;20558;-76
2021/12/02 09:32:02;;;;;;;6.13;2.00;;;21.10;53.70;;;;;;4939690;29;20045;-76
2021/12/02 09:34:28;;;;;;;4.45;2.22;;;21.10;53.70;;;;;;4939946;29;20031;-76
2021/12/02 09:36:55;;;;;;;6.35;2.00;;;21.10;53.70;;;;;;4940059;28;20178;-77
2021/12/02 09:39:28;;;;;;;4.72;2.15;;;21.10;53.70;;;;;;4942867;28;20443;-77
2021/12/02 09:41:54;;;;;;;9.13;2.42;;;21.10;54.40;;;;;;4958862;28;20050;-78
2021/12/02 09:44:19;;;;;;;7.15;2.20;;;21.10;55.80;;;;;;4942624;28;20037;-77
2021/12/02 09:46:45;;;;;;;5.55;1.88;;;21.10;56.30;;;;;;4942771;28;20038;-76
2021/12/02 09:49:12;;;;;;;7.50;2.40;;;21.10;56.10;;;;;;4942503;28;20492;-77
2021/12/02 09:54:23;;;;;;;9.70;2.70;;;21.10;56.00;;;;;;4943389;28;20027;-77
2021/12/02 09:56:51;;;;;;;8.40;2.10;;;21.20;55.50;;;;;;4975865;28;20019;-78
2021/12/02 09:59:26;;;;;;;8.95;2.10;;;21.10;56.30;;;;;;4958617;28;20559;-78
2021/12/02 10:01:58;;;;;;;13.02;2.75;;;21.10;56.20;;;;;;4958756;28;20395;-77
2021/12/02 10:04:25;;;;;;;8.45;2.15;;;21.10;56.20;;;;;;4958145;28;20125;-77
2021/12/02 10:07:04;;;;;;;9.48;2.33;;;21.20;56.70;;;;;;4941554;28;20026;-77
2021/12/02 10:09:40;;;;;;;9.27;1.90;;;21.20;56.50;;;;;;4975794;28;20028;-78
2021/12/02 10:12:21;;;;;;;9.95;2.17;;;21.20;56.80;;;;;;4946830;29;20115;-78
2021/12/02 10:14:53;;;;;;;8.27;2.05;;;21.20;57.10;;;;;;4964494;28;20019;-78
2021/12/02 10:20:24;;;;;;;6.63;2.13;;;21.20;56.90;;;;;;4974229;28;20030;-78
2021/12/02 10:23:16;;;;;;;5.82;2.20;;;21.20;56.60;;;;;;4958281;28;20045;-76
2021/12/02 10:26:04;;;;;;;8.57;2.33;;;21.10;56.40;;;;;;4941497;28;20031;-79
2021/12/02 10:28:35;;;;;;;8.50;2.25;;;21.20;56.60;;;;;;4957927;28;20062;-76
2021/12/02 10:31:04;;;;;;;7.63;2.40;;;21.20;56.70;;;;;;4942099;28;20043;-79
2021/12/02 10:33:40;;;;;;;15.73;2.40;;;21.20;56.20;;;;;;4941698;28;20031;-78
2021/12/02 10:36:29;;;;;;;10.43;2.22;;;21.10;56.30;;;;;;4941535;28;20181;-77
2021/12/02 10:38:58;;;;;;;10.57;2.47;;;21.20;56.60;;;;;;4940923;28;20037;-80
2021/12/02 10:41:28;;;;;;;9.33;2.03;;;21.20;56.20;;;;;;4938242;29;20488;-76
2021/12/02 10:44:33;;;;;;;13.90;2.97;;;21.10;56.30;;;;;;4922681;29;20296;-77
2021/12/02 10:47:06;;;;;;;10.27;2.45;;;21.20;55.80;;;;;;4935541;28;20039;-76
2021/12/02 10:49:42;;;;;;;14.68;3.03;;;21.20;56.10;;;;;;4938228;29;20047;-76
2021/12/02 10:52:16;;;;;;;12.55;2.83;;;21.20;56.50;;;;;;4938664;29;20567;-76
2021/12/02 10:54:46;;;;;;;8.93;2.97;;;21.20;57.00;;;;;;4938262;29;20023;-76
2021/12/02 10:57:13;;;;;;;;;;;21.30;58.00;;;;;;4942128;28;20023;-75
2021/12/02 10:59:45;;;;;;;17.85;2.75;;;21.40;58.20;;;;;;4941200;28;20346;-77
2021/12/02 11:02:27;;;;;;;12.75;2.40;;;21.40;58.10;;;;;;4959228;28;20027;-77
2021/12/02 11:05:06;;;;;;;16.73;4.00;;;21.40;58.80;;;;;;4959186;28;20050;-90
2021/12/02 11:07:40;;;;;;;29.15;4.00;;;21.50;60.50;;;;;;4956941;28;20031;-75
2021/12/02 11:10:10;;;;;;;22.08;3.22;;;21.50;62.40;;;;;;4974112;28;20035;-75
2021/12/02 11:12:41;;;;;;;15.18;2.72;;;21.50;60.20;;;;;;4973648;28;20416;-76
2021/12/02 11:15:27;;;;;;;15.32;2.95;;;21.50;59.20;;;;;;4956701;28;20031;-74
2021/12/02 11:18:04;;;;;;;19.38;3.53;;;21.50;59.20;;;;;;4957012;28;20038;-75
2021/12/02 11:20:37;;;;;;;13.15;3.78;;;21.50;58.40;;;;;;4956525;28;20058;-74
2021/12/02 11:23:12;;;;;;;20.30;3.35;;;21.50;58.60;;;;;;4974156;28;20515;-74
2021/12/02 11:25:52;;;;;;;27.80;4.10;;;21.60;58.50;;;;;;4973684;28;20442;-74
2021/12/02 11:28:18;;;;;;;15.57;3.28;;;21.50;57.70;;;;;;4972107;28;20027;-74
2021/12/02 11:30:44;;;;;;;10.45;2.88;;;21.50;57.80;;;;;;4955932;28;20062;-74
2021/12/02 11:33:10;;;;;;;13.05;3.35;;;21.40;57.00;;;;;;4945775;28;20078;-74
2021/12/02 11:35:42;;;;;;;16.63;3.60;;;21.40;56.10;;;;;;4953307;29;20024;-74
2021/12/02 11:38:22;;;;;;;11.02;2.95;;;21.40;57.30;;;;;;4937799;28;20039;-74
2021/12/02 11:40:50;;;;;;;;;;;21.30;57.30;;;;;;4973542;28;20030;-74
2021/12/02 11:43:24;;;;;;;13.68;3.20;;;21.30;57.00;;;;;;4970271;28;20379;-74
2021/12/02 11:45:51;;;;;;;9.55;2.80;;;21.30;56.90;;;;;;4953403;29;20114;-74
2021/12/02 11:48:21;;;;;;;11.70;3.22;;;21.30;56.90;;;;;;4954116;29;20366;-74
2021/12/02 11:50:51;;;;;;;11.77;3.47;;;21.30;56.80;;;;;;4953915;29;20031;-74
2021/12/02 11:53:22;;;;;;;10.32;3.20;;;21.30;56.50;;;;;;4954306;29;20066;-74
2021/12/02 11:55:50;;;;;;;11.30;3.03;;;21.30;56.40;;;;;;4953204;28;20034;-74
2021/12/02 11:58:17;;;;;;;12.35;3.25;;;21.30;56.30;;;;;;4953114;28;20038;-73
2021/12/02 12:00:44;;;;;;;11.15;2.95;;;21.30;55.10;;;;;;4936923;29;20118;-73
2021/12/02 12:03:17;;;;;;;14.60;3.22;;;21.30;55.70;;;;;;4923539;28;20027;-74
2021/12/02 12:05:57;;;;;;;14.48;3.03;;;21.30;58.00;;;;;;4963721;28;20121;-73
2021/12/02 12:08:33;;;;;;;9.15;3.08;;;21.30;59.40;;;;;;4939829;28;20050;-74
2021/12/02 12:11:27;;;;;;;12.65;3.30;;;21.30;58.80;;;;;;4955724;28;20039;-74
2021/12/02 12:13:59;;;;;;;9.25;2.55;;;21.30;58.50;;;;;;4972408;28;20023;-74
2021/12/02 12:16:37;;;;;;;11.50;2.55;;;21.30;58.00;;;;;;4973159;28;20467;-73
2021/12/02 12:19:29;;;;;;;17.95;3.53;;;21.30;57.20;;;;;;4938446;28;20542;-74
2021/12/02 12:22:02;;;;;;;11.32;3.00;;;21.30;56.70;;;;;;4973202;28;20054;-75
2021/12/02 12:24:52;;;;;;;10.98;2.67;;;21.40;55.10;;;;;;4939554;28;20092;-74
2021/12/02 12:27:24;;;;;;;11.98;3.08;;;21.40;54.90;;;;;;4955076;28;20041;-75
2021/12/02 12:30:11;;;;;;;12.75;3.03;;;21.40;53.70;;;;;;4972979;28;20027;-74
2021/12/02 12:33:04;;;;;;;17.27;2.80;;;21.50;53.50;;;;;;4949280;28;20184;-73
2021/12/02 12:37:57;;;;;;;14.23;3.08;;;21.40;54.20;;;;;;4953640;29;20491;-74
2021/12/02 12:40:32;;;;;;;11.05;2.63;;;21.40;54.20;;;;;;4952323;29;20040;-75
2021/12/02 12:43:02;;;;;;;17.00;3.47;;;21.40;54.30;;;;;;4952406;29;20039;-75
2021/12/02 12:45:46;;;;;;;7.25;2.80;;;21.40;55.00;;;;;;4953120;29;20038;-73
2021/12/02 12:48:18;;;;;;;12.10;3.03;;;21.40;54.90;;;;;;4963864;28;20031;-74
2021/12/02 12:50:46;;;;;;;10.15;3.33;;;21.40;55.00;;;;;;4955509;28;20049;-75
2021/12/02 12:53:18;;;;;;;9.77;3.33;;;21.30;55.00;;;;;;4939293;28;20407;-74
2021/12/02 12:56:03;;;;;;;11.40;3.40;;;21.30;55.20;;;;;;4971826;28;20031;-75
2021/12/02 12:58:30;;;;;;;12.38;3.67;;;21.30;55.20;;;;;;4955433;28;20480;-74
2021/12/02 13:00:57;;;;;;;10.38;3.38;;;21.30;55.20;;;;;;4949943;28;20050;-73
2021/12/02 13:03:29;;;;;;;10.50;3.33;;;21.30;55.30;;;;;;4968508;28;20043;-73
2021/12/02 13:06:14;;;;;;;8.35;3.47;;;21.30;55.40;;;;;;4971368;28;20038;-73
2021/12/02 13:08:49;;;;;;;12.35;3.63;;;21.30;55.50;;;;;;4970575;28;20112;-75
2021/12/02 13:11:24;;;;;;;9.77;3.08;;;21.30;55.70;;;;;;4969157;28;20027;-74
2021/12/02 13:13:53;;;;;;;9.48;3.20;;;21.20;55.20;;;;;;4918840;28;20035;-72
2021/12/02 13:16:19;;;;;;;12.57;2.90;;;21.30;55.00;;;;;;4969275;28;20031;-73
2021/12/02 13:18:51;;;;;;;11.18;3.30;;;21.20;54.80;;;;;;4954418;28;20038;-73
2021/12/02 13:21:35;;;;;;;10.07;3.40;;;21.20;54.30;;;;;;4948586;29;20035;-73
2021/12/02 13:24:06;;;;;;;10.68;4.07;;;21.20;55.30;;;;;;4935876;28;20043;-74
2021/12/02 13:26:44;;;;;;;8.73;3.83;;;21.30;55.10;;;;;;4954554;28;20058;-73